sensor_id;sensor_type;location;lat;lon;timestamp;temperature;humidity
19017;DHT22;9641;51.494;6.670;2023-07-31T00:01:40;16.60;99.90
19017;DHT22;9641;51.494;6.670;2023-07-31T00:04:07;16.60;99.90
19017;DHT22;9641;51.494;6.670;2023-07-31T00:06:34;16.60;99.90
19017;DHT22;9641;51.494;6.670;2023-07-31T00:09:01;16.60;99.90
19017;DHT22;9641;51.494;6.670;2023-07-31T00:11:28;16.60;99.90
19017;DHT22;9641;51.494;6.670;2023-07-31T00:13:56;16.60;99.90
19017;DHT22;9641;51.494;6.670;2023-07-31T00:16:23;16.60;99.90
19017;DHT22;9641;51.494;6.670;2023-07-31T00:18:50;16.60;99.90
19017;DHT22;9641;51.494;6.670;2023-07-31T00:21:16;16.60;99.90
19017;DHT22;9641;51.494;6.670;2023-07-31T00:23:43;16.60;99.90
19017;DHT22;9641;51.494;6.670;2023-07-31T00:26:10;16.60;99.90
19017;DHT22;9641;51.494;6.670;2023-07-31T00:28:37;16.60;99.90
19017;DHT22;9641;51.494;6.670;2023-07-31T00:31:05;16.70;99.90
19017;DHT22;9641;51.494;6.670;2023-07-31T00:33:34;16.70;99.90
19017;DHT22;9641;51.494;6.670;2023-07-31T00:36:03;16.70;99.90
19017;DHT22;9641;51.494;6.670;2023-07-31T00:38:30;16.70;99.90
19017;DHT22;9641;51.494;6.670;2023-07-31T00:40:56;16.70;99.90
19017;DHT22;9641;51.494;6.670;2023-07-31T00:43:24;16.70;99.90
19017;DHT22;9641;51.494;6.670;2023-07-31T00:45:51;16.70;99.90
19017;DHT22;9641;51.494;6.670;2023-07-31T00:48:19;16.70;99.90
19017;DHT22;9641;51.494;6.670;2023-07-31T00:50:46;16.70;99.90
19017;DHT22;9641;51.494;6.670;2023-07-31T00:53:14;16.70;99.90
19017;DHT22;9641;51.494;6.670;2023-07-31T00:55:42;16.70;99.90
19017;DHT22;9641;51.494;6.670;2023-07-31T00:58:09;16.60;99.90
19017;DHT22;9641;51.494;6.670;2023-07-31T01:00:38;16.70;99.90
19017;DHT22;9641;51.494;6.670;2023-07-31T01:03:05;16.70;99.90
19017;DHT22;9641;51.494;6.670;2023-07-31T01:05:40;16.70;99.90
19017;DHT22;9641;51.494;6.670;2023-07-31T01:08:18;16.70;99.90
19017;DHT22;9641;51.494;6.670;2023-07-31T01:10:52;16.70;99.90
19017;DHT22;9641;51.494;6.670;2023-07-31T01:13:21;16.70;99.90
19017;DHT22;9641;51.494;6.670;2023-07-31T01:15:48;16.70;99.90
19017;DHT22;9641;51.494;6.670;2023-07-31T01:18:15;16.70;99.90
19017;DHT22;9641;51.494;6.670;2023-07-31T01:20:48;16.70;99.90
19017;DHT22;9641;51.494;6.670;2023-07-31T01:23:35;16.70;99.90
19017;DHT22;9641;51.494;6.670;2023-07-31T01:26:12;16.70;99.90
19017;DHT22;9641;51.494;6.670;2023-07-31T01:28:49;16.70;99.90
19017;DHT22;9641;51.494;6.670;2023-07-31T01:31:20;16.70;99.90
19017;DHT22;9641;51.494;6.670;2023-07-31T01:33:49;16.70;99.90
19017;DHT22;9641;51.494;6.670;2023-07-31T01:36:17;16.60;99.90
19017;DHT22;9641;51.494;6.670;2023-07-31T01:38:44;16.60;99.90
19017;DHT22;9641;51.494;6.670;2023-07-31T01:41:12;16.60;99.90
19017;DHT22;9641;51.494;6.670;2023-07-31T01:43:39;16.60;99.90
19017;DHT22;9641;51.494;6.670;2023-07-31T01:46:06;16.60;99.90
19017;DHT22;9641;51.494;6.670;2023-07-31T01:48:32;16.60;99.90
19017;DHT22;9641;51.494;6.670;2023-07-31T01:51:02;16.60;99.90
19017;DHT22;9641;51.494;6.670;2023-07-31T01:53:30;16.60;99.90
19017;DHT22;9641;51.494;6.670;2023-07-31T01:55:57;16.60;99.90
19017;DHT22;9641;51.494;6.670;2023-07-31T01:58:25;16.60;99.90
19017;DHT22;9641;51.494;6.670;2023-07-31T02:00:52;16.60;99.90
19017;DHT22;9641;51.494;6.670;2023-07-31T02:03:19;16.60;99.90
19017;DHT22;9641;51.494;6.670;2023-07-31T02:05:46;16.60;99.90
19017;DHT22;9641;51.494;6.670;2023-07-31T02:08:14;16.50;99.90
19017;DHT22;9641;51.494;6.670;2023-07-31T02:10:41;16.50;99.90
19017;DHT22;9641;51.494;6.670;2023-07-31T02:13:07;16.50;99.90
19017;DHT22;9641;51.494;6.670;2023-07-31T02:15:36;16.50;99.90
19017;DHT22;9641;51.494;6.670;2023-07-31T02:18:03;16.60;99.90
19017;DHT22;9641;51.494;6.670;2023-07-31T02:20:32;16.60;99.90
19017;DHT22;9641;51.494;6.670;2023-07-31T02:23:01;16.60;99.90
19017;DHT22;9641;51.494;6.670;2023-07-31T02:25:28;16.60;99.90
19017;DHT22;9641;51.494;6.670;2023-07-31T02:27:55;16.60;99.90
19017;DHT22;9641;51.494;6.670;2023-07-31T02:30:22;16.60;99.90
19017;DHT22;9641;51.494;6.670;2023-07-31T02:32:51;16.60;99.90
19017;DHT22;9641;51.494;6.670;2023-07-31T02:35:17;16.60;99.90
19017;DHT22;9641;51.494;6.670;2023-07-31T02:37:45;16.60;99.90
19017;DHT22;9641;51.494;6.670;2023-07-31T02:40:13;16.60;99.90
19017;DHT22;9641;51.494;6.670;2023-07-31T02:42:39;16.50;99.90
19017;DHT22;9641;51.494;6.670;2023-07-31T02:45:07;16.50;99.90
19017;DHT22;9641;51.494;6.670;2023-07-31T02:47:34;16.50;99.90
19017;DHT22;9641;51.494;6.670;2023-07-31T02:50:03;16.50;99.90
19017;DHT22;9641;51.494;6.670;2023-07-31T02:52:30;16.60;99.90
19017;DHT22;9641;51.494;6.670;2023-07-31T02:54:57;16.60;99.90
19017;DHT22;9641;51.494;6.670;2023-07-31T02:57:24;16.60;99.90
19017;DHT22;9641;51.494;6.670;2023-07-31T02:59:51;16.60;99.90
19017;DHT22;9641;51.494;6.670;2023-07-31T03:02:18;16.70;99.90
19017;DHT22;9641;51.494;6.670;2023-07-31T03:04:45;16.70;99.90
19017;DHT22;9641;51.494;6.670;2023-07-31T03:07:13;16.60;99.90
19017;DHT22;9641;51.494;6.670;2023-07-31T03:09:40;16.60;99.90
19017;DHT22;9641;51.494;6.670;2023-07-31T03:12:07;16.70;99.90
19017;DHT22;9641;51.494;6.670;2023-07-31T03:14:34;16.60;99.90
19017;DHT22;9641;51.494;6.670;2023-07-31T03:17:01;16.60;99.90
19017;DHT22;9641;51.494;6.670;2023-07-31T03:19:30;16.60;99.90
19017;DHT22;9641;51.494;6.670;2023-07-31T03:21:57;16.60;99.90
19017;DHT22;9641;51.494;6.670;2023-07-31T03:24:25;16.70;99.90
19017;DHT22;9641;51.494;6.670;2023-07-31T03:26:52;16.70;99.90
19017;DHT22;9641;51.494;6.670;2023-07-31T03:29:19;16.70;99.90
19017;DHT22;9641;51.494;6.670;2023-07-31T03:31:46;16.70;99.90
19017;DHT22;9641;51.494;6.670;2023-07-31T03:34:13;16.70;99.90
19017;DHT22;9641;51.494;6.670;2023-07-31T03:36:39;16.70;99.90
19017;DHT22;9641;51.494;6.670;2023-07-31T03:39:06;16.80;99.90
19017;DHT22;9641;51.494;6.670;2023-07-31T03:41:34;16.80;99.90
19017;DHT22;9641;51.494;6.670;2023-07-31T03:44:01;16.70;99.90
19017;DHT22;9641;51.494;6.670;2023-07-31T03:46:28;16.80;99.90
19017;DHT22;9641;51.494;6.670;2023-07-31T03:48:55;16.80;99.90
19017;DHT22;9641;51.494;6.670;2023-07-31T03:51:22;16.80;99.90
19017;DHT22;9641;51.494;6.670;2023-07-31T03:53:49;16.70;99.90
19017;DHT22;9641;51.494;6.670;2023-07-31T03:56:15;16.80;99.90
19017;DHT22;9641;51.494;6.670;2023-07-31T03:58:44;16.90;99.90
19017;DHT22;9641;51.494;6.670;2023-07-31T04:01:10;16.90;99.90
19017;DHT22;9641;51.494;6.670;2023-07-31T04:03:37;16.90;99.90
19017;DHT22;9641;51.494;6.670;2023-07-31T04:06:04;16.90;99.90
19017;DHT22;9641;51.494;6.670;2023-07-31T04:08:32;17.00;99.90
19017;DHT22;9641;51.494;6.670;2023-07-31T04:10:59;16.90;99.90
19017;DHT22;9641;51.494;6.670;2023-07-31T04:13:26;17.00;99.90
19017;DHT22;9641;51.494;6.670;2023-07-31T04:15:54;17.00;99.90
19017;DHT22;9641;51.494;6.670;2023-07-31T04:18:21;17.00;99.90
19017;DHT22;9641;51.494;6.670;2023-07-31T04:20:48;17.00;99.90
19017;DHT22;9641;51.494;6.670;2023-07-31T04:23:14;17.00;99.90
19017;DHT22;9641;51.494;6.670;2023-07-31T04:25:41;17.10;99.90
19017;DHT22;9641;51.494;6.670;2023-07-31T04:28:08;17.00;99.90
19017;DHT22;9641;51.494;6.670;2023-07-31T04:30:35;17.00;99.90
19017;DHT22;9641;51.494;6.670;2023-07-31T04:33:03;17.10;99.90
19017;DHT22;9641;51.494;6.670;2023-07-31T04:35:30;17.10;99.90
19017;DHT22;9641;51.494;6.670;2023-07-31T04:37:57;17.00;99.90
19017;DHT22;9641;51.494;6.670;2023-07-31T04:40:23;17.10;99.90
19017;DHT22;9641;51.494;6.670;2023-07-31T04:42:50;17.10;99.90
19017;DHT22;9641;51.494;6.670;2023-07-31T04:45:17;17.10;99.90
19017;DHT22;9641;51.494;6.670;2023-07-31T04:47:44;17.10;99.90
19017;DHT22;9641;51.494;6.670;2023-07-31T04:50:12;17.20;99.90
19017;DHT22;9641;51.494;6.670;2023-07-31T04:52:39;17.10;99.90
19017;DHT22;9641;51.494;6.670;2023-07-31T04:55:06;17.20;99.90
19017;DHT22;9641;51.494;6.670;2023-07-31T04:57:33;17.20;99.90
19017;DHT22;9641;51.494;6.670;2023-07-31T05:00:00;17.30;99.90
19017;DHT22;9641;51.494;6.670;2023-07-31T05:02:27;17.30;99.90
19017;DHT22;9641;51.494;6.670;2023-07-31T05:04:53;17.30;99.90
19017;DHT22;9641;51.494;6.670;2023-07-31T05:07:21;17.30;99.90
19017;DHT22;9641;51.494;6.670;2023-07-31T05:09:48;17.30;99.90
19017;DHT22;9641;51.494;6.670;2023-07-31T05:12:15;17.30;99.90
19017;DHT22;9641;51.494;6.670;2023-07-31T05:14:42;17.30;99.90
19017;DHT22;9641;51.494;6.670;2023-07-31T05:17:09;17.30;99.90
19017;DHT22;9641;51.494;6.670;2023-07-31T05:19:35;17.30;99.90
19017;DHT22;9641;51.494;6.670;2023-07-31T05:22:02;17.30;99.90
19017;DHT22;9641;51.494;6.670;2023-07-31T05:24:31;17.30;99.90
19017;DHT22;9641;51.494;6.670;2023-07-31T05:26:57;17.30;99.90
19017;DHT22;9641;51.494;6.670;2023-07-31T05:29:25;17.30;99.90
19017;DHT22;9641;51.494;6.670;2023-07-31T05:31:52;17.30;99.90
19017;DHT22;9641;51.494;6.670;2023-07-31T05:34:19;17.20;99.90
19017;DHT22;9641;51.494;6.670;2023-07-31T05:36:46;17.20;99.90
19017;DHT22;9641;51.494;6.670;2023-07-31T05:39:12;17.20;99.90
19017;DHT22;9641;51.494;6.670;2023-07-31T05:41:41;17.20;99.90
19017;DHT22;9641;51.494;6.670;2023-07-31T05:44:07;17.20;99.90
19017;DHT22;9641;51.494;6.670;2023-07-31T05:46:34;17.20;99.90
19017;DHT22;9641;51.494;6.670;2023-07-31T05:49:01;17.20;99.90
19017;DHT22;9641;51.494;6.670;2023-07-31T05:51:29;17.20;99.90
19017;DHT22;9641;51.494;6.670;2023-07-31T05:53:56;17.20;99.90
19017;DHT22;9641;51.494;6.670;2023-07-31T05:56:23;17.20;99.90
19017;DHT22;9641;51.494;6.670;2023-07-31T05:58:51;17.20;99.90
19017;DHT22;9641;51.494;6.670;2023-07-31T06:01:18;17.30;99.90
19017;DHT22;9641;51.494;6.670;2023-07-31T06:03:46;17.30;99.90
19017;DHT22;9641;51.494;6.670;2023-07-31T06:06:13;17.30;99.90
19017;DHT22;9641;51.494;6.670;2023-07-31T06:08:40;17.40;99.90
19017;DHT22;9641;51.494;6.670;2023-07-31T06:11:07;17.40;99.90
19017;DHT22;9641;51.494;6.670;2023-07-31T06:13:34;17.40;99.90
19017;DHT22;9641;51.494;6.670;2023-07-31T06:16:03;17.40;99.90
19017;DHT22;9641;51.494;6.670;2023-07-31T06:18:31;17.40;99.90
19017;DHT22;9641;51.494;6.670;2023-07-31T06:20:57;17.40;99.90
19017;DHT22;9641;51.494;6.670;2023-07-31T06:23:24;17.40;99.90
19017;DHT22;9641;51.494;6.670;2023-07-31T06:25:51;17.40;99.90
19017;DHT22;9641;51.494;6.670;2023-07-31T06:28:18;17.40;99.90
19017;DHT22;9641;51.494;6.670;2023-07-31T06:30:45;17.40;99.90
19017;DHT22;9641;51.494;6.670;2023-07-31T06:33:13;17.40;99.90
19017;DHT22;9641;51.494;6.670;2023-07-31T06:35:39;17.40;99.90
19017;DHT22;9641;51.494;6.670;2023-07-31T06:38:06;17.40;99.90
19017;DHT22;9641;51.494;6.670;2023-07-31T06:40:33;17.40;99.90
19017;DHT22;9641;51.494;6.670;2023-07-31T06:43:00;17.40;99.90
19017;DHT22;9641;51.494;6.670;2023-07-31T06:45:33;17.40;99.90
19017;DHT22;9641;51.494;6.670;2023-07-31T06:48:00;17.30;99.90
19017;DHT22;9641;51.494;6.670;2023-07-31T06:50:29;17.40;99.90
19017;DHT22;9641;51.494;6.670;2023-07-31T06:52:56;17.40;99.90
19017;DHT22;9641;51.494;6.670;2023-07-31T06:55:23;17.30;99.90
19017;DHT22;9641;51.494;6.670;2023-07-31T06:57:51;17.30;99.90
19017;DHT22;9641;51.494;6.670;2023-07-31T07:00:19;17.30;99.90
19017;DHT22;9641;51.494;6.670;2023-07-31T07:02:47;17.20;99.90
19017;DHT22;9641;51.494;6.670;2023-07-31T07:05:14;17.30;99.90
19017;DHT22;9641;51.494;6.670;2023-07-31T07:07:43;17.20;99.90
19017;DHT22;9641;51.494;6.670;2023-07-31T07:10:10;17.30;99.90
19017;DHT22;9641;51.494;6.670;2023-07-31T07:12:37;17.20;99.90
19017;DHT22;9641;51.494;6.670;2023-07-31T07:15:05;17.20;99.90
19017;DHT22;9641;51.494;6.670;2023-07-31T07:17:32;17.30;99.90
19017;DHT22;9641;51.494;6.670;2023-07-31T07:19:59;17.30;99.90
19017;DHT22;9641;51.494;6.670;2023-07-31T07:22:26;17.30;99.90
19017;DHT22;9641;51.494;6.670;2023-07-31T07:24:54;17.30;99.90
19017;DHT22;9641;51.494;6.670;2023-07-31T07:27:21;17.30;99.90
19017;DHT22;9641;51.494;6.670;2023-07-31T07:29:50;17.30;99.90
19017;DHT22;9641;51.494;6.670;2023-07-31T07:32:17;17.30;99.90
19017;DHT22;9641;51.494;6.670;2023-07-31T07:34:44;17.30;99.90
19017;DHT22;9641;51.494;6.670;2023-07-31T07:37:11;17.40;99.90
19017;DHT22;9641;51.494;6.670;2023-07-31T07:39:38;17.30;99.90
19017;DHT22;9641;51.494;6.670;2023-07-31T07:42:06;17.30;99.90
19017;DHT22;9641;51.494;6.670;2023-07-31T07:44:33;17.30;99.90
19017;DHT22;9641;51.494;6.670;2023-07-31T07:47:00;17.30;99.90
19017;DHT22;9641;51.494;6.670;2023-07-31T07:49:27;17.20;99.90
19017;DHT22;9641;51.494;6.670;2023-07-31T07:51:54;17.20;99.90
19017;DHT22;9641;51.494;6.670;2023-07-31T07:54:21;17.10;99.90
19017;DHT22;9641;51.494;6.670;2023-07-31T07:56:48;17.20;99.90
19017;DHT22;9641;51.494;6.670;2023-07-31T07:59:17;17.20;99.90
19017;DHT22;9641;51.494;6.670;2023-07-31T08:01:43;17.10;99.90
19017;DHT22;9641;51.494;6.670;2023-07-31T08:04:10;17.10;99.90
19017;DHT22;9641;51.494;6.670;2023-07-31T08:06:37;17.20;99.90
19017;DHT22;9641;51.494;6.670;2023-07-31T08:09:04;17.20;99.90
19017;DHT22;9641;51.494;6.670;2023-07-31T08:11:32;17.20;99.90
19017;DHT22;9641;51.494;6.670;2023-07-31T08:13:58;17.20;99.90
19017;DHT22;9641;51.494;6.670;2023-07-31T08:16:27;17.10;99.90
19017;DHT22;9641;51.494;6.670;2023-07-31T08:18:54;17.20;99.90
19017;DHT22;9641;51.494;6.670;2023-07-31T08:21:21;17.10;99.90
19017;DHT22;9641;51.494;6.670;2023-07-31T08:23:48;17.10;99.90
19017;DHT22;9641;51.494;6.670;2023-07-31T08:26:16;17.10;99.90
19017;DHT22;9641;51.494;6.670;2023-07-31T08:28:42;17.20;99.90
19017;DHT22;9641;51.494;6.670;2023-07-31T08:31:09;17.20;99.90
19017;DHT22;9641;51.494;6.670;2023-07-31T08:33:38;17.20;99.90
19017;DHT22;9641;51.494;6.670;2023-07-31T08:36:06;17.30;99.90
19017;DHT22;9641;51.494;6.670;2023-07-31T08:38:33;17.30;99.90
19017;DHT22;9641;51.494;6.670;2023-07-31T08:41:00;17.40;99.90
19017;DHT22;9641;51.494;6.670;2023-07-31T08:43:27;17.30;99.90
19017;DHT22;9641;51.494;6.670;2023-07-31T08:45:54;17.30;99.90
19017;DHT22;9641;51.494;6.670;2023-07-31T08:48:22;17.30;99.90
19017;DHT22;9641;51.494;6.670;2023-07-31T08:50:51;17.30;99.90
19017;DHT22;9641;51.494;6.670;2023-07-31T08:53:18;17.30;99.90
19017;DHT22;9641;51.494;6.670;2023-07-31T08:55:46;17.30;99.90
19017;DHT22;9641;51.494;6.670;2023-07-31T08:58:15;17.30;99.90
19017;DHT22;9641;51.494;6.670;2023-07-31T09:00:43;17.30;99.90
19017;DHT22;9641;51.494;6.670;2023-07-31T09:03:14;17.30;99.90
19017;DHT22;9641;51.494;6.670;2023-07-31T09:05:43;17.30;99.90
19017;DHT22;9641;51.494;6.670;2023-07-31T09:08:12;17.40;99.90
19017;DHT22;9641;51.494;6.670;2023-07-31T09:10:43;17.30;99.90
19017;DHT22;9641;51.494;6.670;2023-07-31T09:13:11;17.30;99.90
19017;DHT22;9641;51.494;6.670;2023-07-31T09:15:39;17.30;99.90
19017;DHT22;9641;51.494;6.670;2023-07-31T09:18:07;17.40;99.90
19017;DHT22;9641;51.494;6.670;2023-07-31T09:20:35;17.50;99.90
19017;DHT22;9641;51.494;6.670;2023-07-31T09:23:08;17.50;99.90
19017;DHT22;9641;51.494;6.670;2023-07-31T09:25:38;17.50;99.90
19017;DHT22;9641;51.494;6.670;2023-07-31T09:28:05;17.50;99.90
19017;DHT22;9641;51.494;6.670;2023-07-31T09:30:45;17.50;99.90
19017;DHT22;9641;51.494;6.670;2023-07-31T09:33:12;17.50;99.90
19017;DHT22;9641;51.494;6.670;2023-07-31T09:35:39;17.60;99.90
19017;DHT22;9641;51.494;6.670;2023-07-31T09:38:09;17.60;99.90
19017;DHT22;9641;51.494;6.670;2023-07-31T09:40:39;17.60;99.90
19017;DHT22;9641;51.494;6.670;2023-07-31T09:43:07;17.70;99.90
19017;DHT22;9641;51.494;6.670;2023-07-31T09:45:36;17.70;99.90
19017;DHT22;9641;51.494;6.670;2023-07-31T09:48:07;17.70;99.90
19017;DHT22;9641;51.494;6.670;2023-07-31T09:50:36;17.70;99.90
19017;DHT22;9641;51.494;6.670;2023-07-31T09:53:04;17.70;99.90
19017;DHT22;9641;51.494;6.670;2023-07-31T09:55:31;17.70;99.90
19017;DHT22;9641;51.494;6.670;2023-07-31T09:58:02;17.80;99.90
19017;DHT22;9641;51.494;6.670;2023-07-31T10:00:30;17.80;99.90
19017;DHT22;9641;51.494;6.670;2023-07-31T10:02:59;17.80;99.90
19017;DHT22;9641;51.494;6.670;2023-07-31T10:05:31;17.70;99.90
19017;DHT22;9641;51.494;6.670;2023-07-31T10:07:58;17.60;99.90
19017;DHT22;9641;51.494;6.670;2023-07-31T10:10:26;17.60;99.90
19017;DHT22;9641;51.494;6.670;2023-07-31T10:12:55;17.50;99.90
19017;DHT22;9641;51.494;6.670;2023-07-31T10:15:24;17.60;99.90
19017;DHT22;9641;51.494;6.670;2023-07-31T10:17:52;17.50;99.90
19017;DHT22;9641;51.494;6.670;2023-07-31T10:20:21;17.60;99.90
19017;DHT22;9641;51.494;6.670;2023-07-31T10:22:48;17.70;99.90
19017;DHT22;9641;51.494;6.670;2023-07-31T10:25:16;17.70;99.90
19017;DHT22;9641;51.494;6.670;2023-07-31T10:27:43;17.80;99.90
19017;DHT22;9641;51.494;6.670;2023-07-31T10:30:12;17.90;99.90
19017;DHT22;9641;51.494;6.670;2023-07-31T10:32:41;18.10;99.90
19017;DHT22;9641;51.494;6.670;2023-07-31T10:35:10;18.20;99.90
19017;DHT22;9641;51.494;6.670;2023-07-31T10:37:39;18.40;99.90
19017;DHT22;9641;51.494;6.670;2023-07-31T10:40:11;18.50;99.90
19017;DHT22;9641;51.494;6.670;2023-07-31T10:42:45;18.50;99.90
19017;DHT22;9641;51.494;6.670;2023-07-31T10:45:14;18.50;99.90
19017;DHT22;9641;51.494;6.670;2023-07-31T10:47:45;18.60;99.90
19017;DHT22;9641;51.494;6.670;2023-07-31T10:50:16;18.60;99.90
19017;DHT22;9641;51.494;6.670;2023-07-31T10:52:48;18.60;99.90
19017;DHT22;9641;51.494;6.670;2023-07-31T10:55:23;18.60;99.90
19017;DHT22;9641;51.494;6.670;2023-07-31T10:57:51;18.50;99.90
19017;DHT22;9641;51.494;6.670;2023-07-31T11:00:19;18.40;99.90
19017;DHT22;9641;51.494;6.670;2023-07-31T11:03:01;18.40;99.90
19017;DHT22;9641;51.494;6.670;2023-07-31T11:05:42;18.30;99.90
19017;DHT22;9641;51.494;6.670;2023-07-31T11:08:14;18.30;99.90
19017;DHT22;9641;51.494;6.670;2023-07-31T11:10:42;18.30;99.90
19017;DHT22;9641;51.494;6.670;2023-07-31T11:13:09;18.30;99.90
19017;DHT22;9641;51.494;6.670;2023-07-31T11:15:36;18.30;99.90
19017;DHT22;9641;51.494;6.670;2023-07-31T11:18:04;18.40;99.90
19017;DHT22;9641;51.494;6.670;2023-07-31T11:20:34;18.40;99.90
19017;DHT22;9641;51.494;6.670;2023-07-31T11:23:01;18.30;99.90
19017;DHT22;9641;51.494;6.670;2023-07-31T11:25:29;18.40;99.90
19017;DHT22;9641;51.494;6.670;2023-07-31T11:27:57;18.40;99.90
19017;DHT22;9641;51.494;6.670;2023-07-31T11:30:24;18.40;99.90
19017;DHT22;9641;51.494;6.670;2023-07-31T11:32:50;18.40;99.90
19017;DHT22;9641;51.494;6.670;2023-07-31T11:35:19;18.40;99.90
19017;DHT22;9641;51.494;6.670;2023-07-31T11:37:46;18.40;99.90
19017;DHT22;9641;51.494;6.670;2023-07-31T11:40:14;18.40;99.90
19017;DHT22;9641;51.494;6.670;2023-07-31T11:42:41;18.40;99.90
19017;DHT22;9641;51.494;6.670;2023-07-31T11:45:09;18.50;99.90
19017;DHT22;9641;51.494;6.670;2023-07-31T11:47:37;18.50;99.90
19017;DHT22;9641;51.494;6.670;2023-07-31T11:50:05;18.40;99.90
19017;DHT22;9641;51.494;6.670;2023-07-31T11:52:38;18.40;99.90
19017;DHT22;9641;51.494;6.670;2023-07-31T11:55:08;18.40;99.90
19017;DHT22;9641;51.494;6.670;2023-07-31T11:57:37;18.50;99.90
19017;DHT22;9641;51.494;6.670;2023-07-31T12:00:07;18.50;99.90
19017;DHT22;9641;51.494;6.670;2023-07-31T12:02:35;18.50;99.90
19017;DHT22;9641;51.494;6.670;2023-07-31T12:05:02;18.50;99.90
19017;DHT22;9641;51.494;6.670;2023-07-31T12:07:47;18.50;99.90
19017;DHT22;9641;51.494;6.670;2023-07-31T12:10:28;18.40;99.90
19017;DHT22;9641;51.494;6.670;2023-07-31T12:13:04;18.40;99.90
19017;DHT22;9641;51.494;6.670;2023-07-31T12:15:39;18.40;99.90
19017;DHT22;9641;51.494;6.670;2023-07-31T12:18:08;18.40;99.90
19017;DHT22;9641;51.494;6.670;2023-07-31T12:20:35;18.50;99.90
19017;DHT22;9641;51.494;6.670;2023-07-31T12:23:07;18.50;99.90
19017;DHT22;9641;51.494;6.670;2023-07-31T12:25:39;18.60;99.90
19017;DHT22;9641;51.494;6.670;2023-07-31T12:28:07;18.60;99.90
19017;DHT22;9641;51.494;6.670;2023-07-31T12:30:38;18.70;99.90
19017;DHT22;9641;51.494;6.670;2023-07-31T12:33:06;18.70;99.90
19017;DHT22;9641;51.494;6.670;2023-07-31T12:35:38;18.80;99.90
19017;DHT22;9641;51.494;6.670;2023-07-31T12:38:07;18.80;99.90
19017;DHT22;9641;51.494;6.670;2023-07-31T12:40:35;18.80;99.90
19017;DHT22;9641;51.494;6.670;2023-07-31T12:43:02;18.80;99.90
19017;DHT22;9641;51.494;6.670;2023-07-31T12:45:30;18.80;99.90
19017;DHT22;9641;51.494;6.670;2023-07-31T12:47:57;18.80;99.90
19017;DHT22;9641;51.494;6.670;2023-07-31T12:50:24;18.90;99.90
19017;DHT22;9641;51.494;6.670;2023-07-31T12:52:53;19.00;99.90
19017;DHT22;9641;51.494;6.670;2023-07-31T12:55:21;19.00;99.90
19017;DHT22;9641;51.494;6.670;2023-07-31T12:57:48;19.00;99.90
19017;DHT22;9641;51.494;6.670;2023-07-31T13:00:15;19.00;99.90
19017;DHT22;9641;51.494;6.670;2023-07-31T13:02:42;19.00;99.90
19017;DHT22;9641;51.494;6.670;2023-07-31T13:05:09;19.00;99.90
19017;DHT22;9641;51.494;6.670;2023-07-31T13:07:36;19.00;99.90
19017;DHT22;9641;51.494;6.670;2023-07-31T13:10:04;19.00;99.90
19017;DHT22;9641;51.494;6.670;2023-07-31T13:12:33;19.10;99.90
19017;DHT22;9641;51.494;6.670;2023-07-31T13:15:00;19.10;99.90
19017;DHT22;9641;51.494;6.670;2023-07-31T13:17:26;19.10;99.90
19017;DHT22;9641;51.494;6.670;2023-07-31T13:19:53;19.10;99.90
19017;DHT22;9641;51.494;6.670;2023-07-31T13:22:20;19.00;99.90
19017;DHT22;9641;51.494;6.670;2023-07-31T13:24:47;19.00;99.90
19017;DHT22;9641;51.494;6.670;2023-07-31T13:27:14;18.90;99.90
19017;DHT22;9641;51.494;6.670;2023-07-31T13:29:43;19.00;99.90
19017;DHT22;9641;51.494;6.670;2023-07-31T13:32:11;18.90;99.90
19017;DHT22;9641;51.494;6.670;2023-07-31T13:34:38;19.00;99.90
19017;DHT22;9641;51.494;6.670;2023-07-31T13:37:05;19.00;99.90
19017;DHT22;9641;51.494;6.670;2023-07-31T13:39:32;19.00;99.90
19017;DHT22;9641;51.494;6.670;2023-07-31T13:41:59;19.00;99.90
19017;DHT22;9641;51.494;6.670;2023-07-31T13:44:26;19.00;99.90
19017;DHT22;9641;51.494;6.670;2023-07-31T13:46:55;19.00;99.90
19017;DHT22;9641;51.494;6.670;2023-07-31T13:49:22;19.00;99.90
19017;DHT22;9641;51.494;6.670;2023-07-31T13:51:49;19.10;99.90
19017;DHT22;9641;51.494;6.670;2023-07-31T13:54:15;19.20;99.90
19017;DHT22;9641;51.494;6.670;2023-07-31T13:56:43;19.20;99.90
19017;DHT22;9641;51.494;6.670;2023-07-31T13:59:10;19.40;99.90
19017;DHT22;9641;51.494;6.670;2023-07-31T14:01:37;19.80;99.90
19017;DHT22;9641;51.494;6.670;2023-07-31T14:04:05;20.20;99.90
19017;DHT22;9641;51.494;6.670;2023-07-31T14:06:32;20.40;99.90
19017;DHT22;9641;51.494;6.670;2023-07-31T14:08:59;20.60;99.90
19017;DHT22;9641;51.494;6.670;2023-07-31T14:11:26;20.60;99.90
19017;DHT22;9641;51.494;6.670;2023-07-31T14:13:53;20.50;99.90
19017;DHT22;9641;51.494;6.670;2023-07-31T14:16:20;20.30;99.90
19017;DHT22;9641;51.494;6.670;2023-07-31T14:18:47;20.20;99.90
19017;DHT22;9641;51.494;6.670;2023-07-31T14:21:16;20.00;99.90
19017;DHT22;9641;51.494;6.670;2023-07-31T14:23:45;19.90;99.90
19017;DHT22;9641;51.494;6.670;2023-07-31T14:26:12;19.80;99.90
19017;DHT22;9641;51.494;6.670;2023-07-31T14:28:39;19.70;99.90
19017;DHT22;9641;51.494;6.670;2023-07-31T14:31:06;19.70;99.90
19017;DHT22;9641;51.494;6.670;2023-07-31T14:33:33;19.70;99.90
19017;DHT22;9641;51.494;6.670;2023-07-31T14:36:00;19.60;99.90
19017;DHT22;9641;51.494;6.670;2023-07-31T14:38:28;19.50;99.90
19017;DHT22;9641;51.494;6.670;2023-07-31T14:40:56;19.50;99.90
19017;DHT22;9641;51.494;6.670;2023-07-31T14:43:22;19.50;99.90
19017;DHT22;9641;51.494;6.670;2023-07-31T14:45:49;19.40;99.90
19017;DHT22;9641;51.494;6.670;2023-07-31T14:48:17;19.40;99.90
19017;DHT22;9641;51.494;6.670;2023-07-31T14:50:44;19.40;99.90
19017;DHT22;9641;51.494;6.670;2023-07-31T14:53:11;19.30;99.90
19017;DHT22;9641;51.494;6.670;2023-07-31T14:55:39;19.20;99.90
19017;DHT22;9641;51.494;6.670;2023-07-31T14:58:06;19.20;99.90
19017;DHT22;9641;51.494;6.670;2023-07-31T15:00:33;19.10;99.90
19017;DHT22;9641;51.494;6.670;2023-07-31T15:03:00;19.10;99.90
19017;DHT22;9641;51.494;6.670;2023-07-31T15:05:26;19.00;99.90
19017;DHT22;9641;51.494;6.670;2023-07-31T15:07:53;19.00;99.90
19017;DHT22;9641;51.494;6.670;2023-07-31T15:10:20;19.00;99.90
19017;DHT22;9641;51.494;6.670;2023-07-31T15:12:48;19.00;99.90
19017;DHT22;9641;51.494;6.670;2023-07-31T15:15:15;18.90;99.90
19017;DHT22;9641;51.494;6.670;2023-07-31T15:17:42;18.90;99.90
19017;DHT22;9641;51.494;6.670;2023-07-31T15:20:10;19.00;99.90
19017;DHT22;9641;51.494;6.670;2023-07-31T15:22:37;19.00;99.90
19017;DHT22;9641;51.494;6.670;2023-07-31T15:25:05;19.00;99.90
19017;DHT22;9641;51.494;6.670;2023-07-31T15:27:32;19.00;99.90
19017;DHT22;9641;51.494;6.670;2023-07-31T15:30:00;19.00;99.90
19017;DHT22;9641;51.494;6.670;2023-07-31T15:32:29;19.00;99.90
19017;DHT22;9641;51.494;6.670;2023-07-31T15:35:00;19.00;99.90
19017;DHT22;9641;51.494;6.670;2023-07-31T15:37:27;19.10;99.90
19017;DHT22;9641;51.494;6.670;2023-07-31T15:39:54;19.10;99.90
19017;DHT22;9641;51.494;6.670;2023-07-31T15:42:21;19.10;99.90
19017;DHT22;9641;51.494;6.670;2023-07-31T15:44:48;19.20;99.90
19017;DHT22;9641;51.494;6.670;2023-07-31T15:47:16;19.20;99.90
19017;DHT22;9641;51.494;6.670;2023-07-31T15:49:43;19.10;99.90